Meteorología y climatología de Navarra
Datos de la estación - Meteo Navarra

Estación de Doneztebe-Santesteban GN

Altitud 125 m.


Datos desde el 14/08/2019 hasta el 15/08/2019 en horario solar
Los datos son PROVISIONALES

Anterior Página 1 de 1 Siguiente Descargar: Formato para Excel 2000 o superior   Formato csv   Formato para OpenOffice Calc
Fecha Temperatura Humedad relativa Radiación global Insolación Precipitación Vel. viento 10 m Vel. viento 10 m Dir. viento 10 m
ºC % W/m² s l/m² m/s km/h º
14/08/2019 0:00 11.3 98 0.0 0 0.0 0.4 1.5 126
14/08/2019 0:10 11.0 98 0.0 0 0.0 0.2 0.8 126
14/08/2019 0:20 11.1 98 0.0 0 0.0 0.0 0.0 0
14/08/2019 0:30 11.2 98 0.0 0 0.0 0.0 0.0 0
14/08/2019 0:40 11.2 98 0.0 0 0.0 0.0 0.0 0
14/08/2019 0:50 11.3 99 0.0 0 0.0 0.0 0.0 0
14/08/2019 1:00 11.4 99 0.0 0 0.0 0.0 0.0 0
14/08/2019 1:10 11.8 99 0.0 0 0.0 0.0 0.1 126
14/08/2019 1:20 11.9 99 0.0 0 0.0 0.1 0.3 113
14/08/2019 1:30 11.9 99 0.0 0 0.0 0.1 0.4 175
14/08/2019 1:40 11.7 99 0.0 0 0.0 0.4 1.5 199
14/08/2019 1:50 11.7 99 0.0 0 0.0 0.4 1.6 182
14/08/2019 2:00 11.6 99 0.0 0 0.0 0.2 0.9 214
14/08/2019 2:10 11.7 99 0.0 0 0.0 0.5 1.8 164
14/08/2019 2:20 11.9 100 0.0 0 0.0 0.7 2.6 114
14/08/2019 2:30 11.7 99 0.0 0 0.0 0.6 2.0 183
14/08/2019 2:40 11.7 100 0.0 0 0.0 0.8 3.0 160
14/08/2019 2:50 11.8 100 0.0 0 0.0 0.6 2.1 176
14/08/2019 3:00 11.7 99 0.0 0 0.0 1.0 3.7 115
14/08/2019 3:10 11.7 99 0.0 0 0.0 0.9 3.2 134
14/08/2019 3:20 11.6 100 0.0 0 0.0 0.9 3.2 151
14/08/2019 3:30 11.7 100 0.0 0 0.0 0.6 2.0 151
14/08/2019 3:40 11.6 99 0.0 0 0.0 1.0 3.7 199
14/08/2019 3:50 11.4 99 0.0 0 0.0 0.5 1.7 184
14/08/2019 4:00 11.6 100 0.0 0 0.0 0.8 2.8 192
14/08/2019 4:10 11.4 99 0.0 0 0.0 0.9 3.1 216
14/08/2019 4:20 11.4 99 0.0 0 0.0 1.1 3.8 223
14/08/2019 4:30 11.4 100 0.0 0 0.0 0.5 1.9 228
14/08/2019 4:40 11.5 100 0.0 0 0.0 0.8 3.0 167
14/08/2019 4:50 11.4 99 0.0 0 0.0 0.4 1.3 201
14/08/2019 5:00 11.3 99 0.0 0 0.0 0.3 1.0 169
14/08/2019 5:10 11.4 100 0.0 0 0.0 0.8 2.9 150
14/08/2019 5:20 11.3 99 0.0 0 0.0 0.8 2.9 172
14/08/2019 5:30 11.5 99 12.0 0 0.0 0.7 2.6 125
14/08/2019 5:40 11.4 99 22.8 0 0.0 0.8 3.0 119
14/08/2019 5:50 11.5 99 28.7 0 0.0 0.6 2.1 131
14/08/2019 6:00 11.6 99 25.6 0 0.0 1.1 4.0 138
14/08/2019 6:10 11.7 99 32.4 0 0.0 1.3 4.7 120
14/08/2019 6:20 11.8 99 42.8 0 0.0 1.1 4.0 143
14/08/2019 6:30 11.7 99 65.1 0 0.0 1.1 4.0 116
14/08/2019 6:40 11.7 98 67.7 0 0.0 1.2 4.4 108
14/08/2019 6:50 11.7 98 71.7 0 0.0 1.4 4.9 108
14/08/2019 7:00 11.9 97 99.1 0 0.0 1.1 4.0 107
14/08/2019 7:10 12.2 97 109.4 0 0.0 0.5 1.9 116
14/08/2019 7:20 12.4 96 120.9 0 0.0 0.5 1.9 110
14/08/2019 7:30 12.4 94 148.3 0 0.0 0.5 1.9 97
14/08/2019 7:40 12.5 94 168.4 0 0.0 0.4 1.4 77
14/08/2019 7:50 12.6 94 183.3 0 0.0 0.3 1.0 88
14/08/2019 8:00 13.1 93 201.8 0 0.0 0.1 0.3 340
14/08/2019 8:10 13.4 91 261.4 194 0.0 0.5 1.7 77
14/08/2019 8:20 13.6 92 501.9 600 0.0 0.5 1.9 333
14/08/2019 8:30 14.1 88 585.9 600 0.0 0.1 0.4 271
14/08/2019 8:40 14.9 85 614.9 600 0.0 0.1 0.2 145
14/08/2019 8:50 15.5 83 595.8 600 0.0 0.2 0.5 246
14/08/2019 9:00 15.9 83 619.0 600 0.0 0.0 0.0 186
14/08/2019 9:10 16.4 80 644.0 600 0.0 0.0 0.1 109
14/08/2019 9:20 17.3 78 667.2 600 0.0 0.1 0.5 197
14/08/2019 9:30 18.0 74 688.1 600 0.0 0.1 0.2 39
14/08/2019 9:40 18.4 72 713.6 600 0.0 0.0 0.0 0
14/08/2019 9:50 19.1 71 745.1 600 0.0 0.2 0.8 300
14/08/2019 10:00 19.3 70 753.9 600 0.0 0.1 0.5 316
14/08/2019 10:10 20.1 67 771.2 600 0.0 0.1 0.3 78
14/08/2019 10:20 21.1 65 775.0 600 0.0 0.0 0.1 343
14/08/2019 10:30 21.4 62 799.8 600 0.0 0.1 0.4 123
14/08/2019 10:40 22.4 60 810.0 600 0.0 0.2 0.5 159
14/08/2019 10:50 22.9 57 821.0 600 0.0 0.1 0.2 199
14/08/2019 11:00 23.1 57 834.0 600 0.0 0.0 0.0 0
14/08/2019 11:10 23.8 56 835.0 600 0.0 0.2 0.8 220
14/08/2019 11:20 24.3 57 849.0 600 0.0 0.4 1.4 193
14/08/2019 11:30 25.2 54 854.0 600 0.0 0.2 0.8 174
14/08/2019 11:40 26.2 50 864.0 600 0.0 0.4 1.3 150
14/08/2019 11:50 26.4 48 868.0 600 0.0 0.4 1.3 291
14/08/2019 12:00 26.6 49 873.0 600 0.0 1.8 6.3 322
14/08/2019 12:10 26.8 46 876.0 600 0.0 1.6 5.6 344
14/08/2019 12:20 26.7 48 877.0 600 0.0 2.0 7.3 338
14/08/2019 12:30 26.8 48 838.0 600 0.0 1.7 6.2 337
14/08/2019 12:40 27.1 46 868.0 600 0.0 1.8 6.6 339
14/08/2019 12:50 27.5 46 864.0 600 0.0 2.4 8.6 334
14/08/2019 13:00 27.1 45 859.0 600 0.0 1.1 3.8 335
14/08/2019 13:10 27.6 46 849.0 600 0.0 1.6 5.8 324
14/08/2019 13:20 27.7 46 841.0 600 0.0 2.0 7.1 323
14/08/2019 13:30 27.6 42 832.0 600 0.0 1.5 5.3 337
14/08/2019 13:40 28.0 42 821.0 600 0.0 2.0 7.3 323
14/08/2019 13:50 27.8 41 811.0 600 0.0 2.6 9.3 333
14/08/2019 14:00 27.5 41 797.8 600 0.0 2.0 7.1 337
14/08/2019 14:10 27.6 40 784.5 600 0.0 1.8 6.5 327
14/08/2019 14:20 27.5 41 768.5 600 0.0 2.8 9.9 338
14/08/2019 14:30 27.3 39 749.9 600 0.0 1.6 5.9 351
14/08/2019 14:40 27.6 42 730.6 600 0.0 1.9 6.8 336
14/08/2019 14:50 27.2 43 710.6 600 0.0 2.2 8.0 342
14/08/2019 15:00 27.1 41 690.4 600 0.0 1.9 6.7 17
14/08/2019 15:10 26.9 42 667.1 600 0.0 1.9 6.7 353
14/08/2019 15:20 27.2 41 643.2 600 0.0 1.8 6.6 342
14/08/2019 15:30 26.7 42 621.3 600 0.0 1.2 4.3 357
14/08/2019 15:40 26.6 42 595.5 600 0.0 2.2 7.8 347
14/08/2019 15:50 26.6 44 568.5 600 0.0 1.8 6.6 344
14/08/2019 16:00 26.3 45 553.8 600 0.0 2.4 8.6 343
14/08/2019 16:10 26.0 47 519.2 600 0.0 2.3 8.2 346
14/08/2019 16:20 26.2 44 499.6 600 0.0 2.2 8.0 332
14/08/2019 16:30 25.8 47 400.8 428 0.0 1.9 6.8 349
14/08/2019 16:40 25.1 47 265.2 218 0.0 1.5 5.3 9
14/08/2019 16:50 24.8 49 311.0 398 0.0 1.2 4.1 2
14/08/2019 17:00 24.8 48 231.5 306 0.0 1.9 6.8 21
14/08/2019 17:10 24.3 46 143.4 0 0.0 2.2 7.9 18
14/08/2019 17:20 24.4 48 273.6 438 0.0 2.2 8.1 25
14/08/2019 17:30 24.3 49 177.8 176 0.0 2.8 10.1 352
14/08/2019 17:40 23.7 50 137.3 20 0.0 1.9 6.9 9
14/08/2019 17:50 23.7 51 113.5 0 0.0 2.0 7.2 359
14/08/2019 18:00 23.5 53 76.8 0 0.0 1.5 5.5 335
14/08/2019 18:10 23.3 54 56.7 0 0.0 1.0 3.6 355
14/08/2019 18:20 23.1 56 41.8 0 0.0 1.0 3.7 354
14/08/2019 18:30 22.8 57 24.6 0 0.0 1.0 3.6 343
14/08/2019 18:40 22.6 57 16.0 0 0.0 1.5 5.5 337
14/08/2019 18:50 22.3 58 12.8 0 0.0 1.1 4.1 320
14/08/2019 19:00 22.0 58 0.0 0 0.0 1.5 5.3 332
14/08/2019 19:10 21.9 60 0.0 0 0.0 0.5 1.8 333
14/08/2019 19:20 21.4 63 0.0 0 0.0 0.7 2.5 322
14/08/2019 19:30 21.2 66 0.0 0 0.0 0.4 1.3 321
14/08/2019 19:40 21.0 66 0.0 0 0.0 0.4 1.5 351
14/08/2019 19:50 20.9 71 0.0 0 0.0 0.0 0.0 0
14/08/2019 20:00 20.4 76 0.0 0 0.0 0.0 0.0 0
14/08/2019 20:10 20.1 77 0.0 0 0.0 0.0 0.1 328
14/08/2019 20:20 19.9 78 0.0 0 0.0 0.0 0.0 0
14/08/2019 20:30 19.8 78 0.0 0 0.0 0.0 0.0 0
14/08/2019 20:40 19.7 80 0.0 0 0.0 0.0 0.0 0
14/08/2019 20:50 19.6 81 0.0 0 0.0 0.0 0.0 0
14/08/2019 21:00 19.6 81 0.0 0 0.0 0.0 0.0 0
14/08/2019 21:10 19.6 80 0.0 0 0.0 0.4 1.5 313
14/08/2019 21:20 19.9 77 0.0 0 0.0 0.4 1.6 333
14/08/2019 21:30 20.0 78 0.0 0 0.0 0.0 0.0 0
14/08/2019 21:40 20.0 77 0.0 0 0.0 0.0 0.1 0
14/08/2019 21:50 19.7 82 0.0 0 0.0 0.0 0.0 128
14/08/2019 22:00 19.6 84 0.0 0 0.0 0.3 1.1 126
14/08/2019 22:10 19.6 83 0.0 0 0.0 0.2 0.8 135
14/08/2019 22:20 19.6 82 0.0 0 0.0 0.4 1.6 130
14/08/2019 22:30 19.4 84 0.0 0 0.0 0.1 0.4 133
14/08/2019 22:40 19.1 84 0.0 0 0.0 0.1 0.3 118
14/08/2019 22:50 19.2 85 0.0 0 0.0 0.3 1.0 127
14/08/2019 23:00 19.2 86 0.0 0 0.0 0.1 0.5 118
14/08/2019 23:10 18.9 86 0.0 0 0.0 0.4 1.5 78
14/08/2019 23:20 18.8 86 0.0 0 0.0 0.1 0.3 65
14/08/2019 23:30 18.5 89 0.0 0 0.0 0.0 0.0 0
14/08/2019 23:40 18.2 90 0.0 0 0.0 0.0 0.0 0
14/08/2019 23:50 18.3 91 0.0 0 0.0 0.0 0.0 0
Anterior Página 1 de 1 Siguiente

NOTA: Tipo de datos según el color:
   - Valores diarios o 10 minutos correctos
   - Valores diarios calculados a partir de un número de datos 10 minutos menor que 144 y mayor que 120, o de un número de datos semihorarios menor que 48 y mayor que 40 (caso de las estaciones de Riegos de Navarra y del MARM)
   - Valores diez minutos estimados


Contacto        Enlaces        Aviso legal